Terminal Aerodrome Forecast
Issued by NWS

Home | Current Version | Previous Version | Text Only | Print | Product List | Glossary On
Versions: 1 2 3 4 5 6 7 8 9 10 11 12 13 14 15 16 17 18 19 20 21 22 23 24 25 26 27
000
FTUS41 KBTV 160500
TAFMPV
TAF
KMPV 160523Z 1606/1706 00000KT P6SM -SHRA OVC070
      TEMPO 1610/1613 5SM -RA BR BKN030 OVC060
     FM161300 VRB03KT P6SM OVC025
     FM161600 VRB03KT P6SM OVC035
     FM170000 VRB03KT P6SM FEW250=

USA.gov is the U.S. government's official web portal to all federal, state and local government web resources and services.